Amanda Park, Washington
Current Conditions -  °F | °C
As of 9:53 AM on Friday 19 Dec 2014 (Local Time) from KHQM Reporting Station
Haze Haze  
Wind Chill: 43°   Ceiling: Unl
Heat Index: 47°   Visibility: 6mi
Dew Point: 45°   Wind: 9mph
Humidity: 93%   Direction: 100°E
Pressure: 29.91"   Gusts: NA
Location:  47.46°N, 123.89°W
Report Text: KHQM 191753Z AUTO 10008KT 6SM BR FEW030 FEW060 08/07 A2991 RMK AO2 SLP130 60006 T00830072 10089 20061 51021
Loading
Personal Weather Stations






























Interactive Weather Map New forecast layout! Learn more

10-Day Weather Forecast

Advertisements
Track Severe Weather on mobile